Terminal Aerodrome Forecast
Issued by NWS Austin/San Antonio, TX

Home | Current Version | Previous Version | Text Only | Print | Product List | Glossary On
Versions: 1 2 3 4 5 6 7 8 9 10 11 12 13 14 15 16
000
FTUS44 KEWX 010541
TAFSAT
TAF
KSAT 010541Z 0106/0212 13008KT P6SM BKN015
     FM011500 15007KT P6SM BKN025
     FM011600 15008KT P6SM BKN050
     FM012000 14012G22KT P6SM VCSH BKN060
     FM020100 14010KT P6SM SCT060
     FM020600 14010KT P6SM BKN020=

USA.gov is the U.S. government's official web portal to all federal, state and local government web resources and services.